createdAt,value
2017-02-08T00:00:47.956Z,99.99
2017-02-08T00:01:57.767Z,99.99
2017-02-08T00:03:07.589Z,99.99
2017-02-08T00:04:17.400Z,99.99
2017-02-08T00:05:26.831Z,99.99
2017-02-08T00:06:35.889Z,99.99
2017-02-08T00:07:45.314Z,99.99
2017-02-08T00:08:54.346Z,99.99
2017-02-08T00:10:03.788Z,99.99
2017-02-08T00:11:13.589Z,99.99
2017-02-08T00:12:23.451Z,99.99
2017-02-08T00:13:33.292Z,99.99
2017-02-08T00:14:43.115Z,99.99
2017-02-08T00:15:52.178Z,99.99
2017-02-08T00:17:02.368Z,99.99
2017-02-08T00:18:12.581Z,99.99
2017-02-08T00:19:22.047Z,99.99
2017-02-08T00:20:32.232Z,99.99
2017-02-08T00:21:41.701Z,99.99
2017-02-08T00:22:51.532Z,99.99
2017-02-08T00:24:00.980Z,99.99
2017-02-08T00:25:10.407Z,99.99
2017-02-08T00:26:19.070Z,99.99
2017-02-08T00:27:28.505Z,99.99
2017-02-08T00:28:38.317Z,99.99
2017-02-08T00:29:48.132Z,99.99
2017-02-08T00:30:57.173Z,99.99
2017-02-08T00:32:06.601Z,99.99
2017-02-08T00:33:15.653Z,99.99
2017-02-08T00:34:25.090Z,99.99
2017-02-08T00:35:34.569Z,99.99
2017-02-08T00:36:44.006Z,99.99
2017-02-08T00:37:53.825Z,99.99
2017-02-08T00:39:02.873Z,99.99
2017-02-08T00:40:12.763Z,99.99
2017-02-08T00:41:21.827Z,99.99
2017-02-08T00:42:31.640Z,99.99
2017-02-08T00:43:40.681Z,99.99
2017-02-08T00:44:49.808Z,99.99
2017-02-08T00:46:00.146Z,99.99
2017-02-08T00:47:09.627Z,99.99
2017-02-08T00:48:19.051Z,99.99
2017-02-08T00:49:29.295Z,99.99
2017-02-08T00:50:38.735Z,99.99
2017-02-08T00:51:48.944Z,99.99
2017-02-08T00:52:58.755Z,99.99
2017-02-08T00:54:07.450Z,99.99
2017-02-08T00:55:16.916Z,99.99
2017-02-08T00:56:25.577Z,99.99
2017-02-08T00:57:35.525Z,99.99
2017-02-08T00:58:44.569Z,99.99
2017-02-08T00:59:53.609Z,99.99
2017-02-08T01:01:02.323Z,99.99
2017-02-08T01:02:12.220Z,99.99
2017-02-08T01:03:21.267Z,99.99
2017-02-08T01:04:31.483Z,99.99
2017-02-08T01:05:41.326Z,99.99
2017-02-08T01:06:50.477Z,99.99
2017-02-08T01:07:59.515Z,99.99
2017-02-08T01:09:08.611Z,99.99
2017-02-08T01:10:18.037Z,99.99
2017-02-08T01:11:27.463Z,99.99
2017-02-08T01:12:36.897Z,99.99
2017-02-08T01:13:46.715Z,99.99
2017-02-08T01:14:55.774Z,99.99
2017-02-08T01:16:04.918Z,99.99
2017-02-08T01:17:13.959Z,99.99
2017-02-08T01:18:22.625Z,99.99
2017-02-08T01:19:31.293Z,99.99
2017-02-08T01:20:41.108Z,99.99
2017-02-08T01:21:49.761Z,99.99
2017-02-08T01:22:58.829Z,99.99
2017-02-08T01:24:08.262Z,99.99
2017-02-08T01:25:18.209Z,99.99
2017-02-08T01:26:27.379Z,99.99
2017-02-08T01:27:36.067Z,99.99
2017-02-08T01:28:45.954Z,99.99
2017-02-08T01:29:55.001Z,99.99
2017-02-08T01:31:05.205Z,99.99
2017-02-08T01:32:15.008Z,99.99
2017-02-08T01:33:25.203Z,99.99
2017-02-08T01:34:34.244Z,99.99
2017-02-08T01:35:43.673Z,99.99
2017-02-08T01:36:53.136Z,99.99
2017-02-08T01:38:02.179Z,99.99
2017-02-08T01:39:11.233Z,99.99
2017-02-08T01:40:20.692Z,99.99
2017-02-08T01:41:29.773Z,99.99
2017-02-08T01:42:39.693Z,99.99
2017-02-08T01:43:49.526Z,99.99
2017-02-08T01:44:59.082Z,99.99
2017-02-08T01:46:08.519Z,99.99
2017-02-08T01:47:18.422Z,99.99
2017-02-08T01:48:27.853Z,99.99
2017-02-08T01:49:37.285Z,99.99
2017-02-08T01:50:46.716Z,99.99
2017-02-08T01:51:55.786Z,99.99
2017-02-08T01:53:04.832Z,99.99
2017-02-08T01:54:14.678Z,99.99
2017-02-08T01:55:23.724Z,99.99
2017-02-08T01:56:32.925Z,99.99
2017-02-08T01:57:42.474Z,99.99
2017-02-08T01:58:51.627Z,99.99
2017-02-08T02:00:01.099Z,99.99
2017-02-08T02:01:10.180Z,99.99
2017-02-08T02:02:19.988Z,99.99
2017-02-08T02:03:28.654Z,99.99
2017-02-08T02:04:38.071Z,99.99
2017-02-08T02:05:47.889Z,99.99
2017-02-08T02:06:57.338Z,99.99
2017-02-08T02:08:07.162Z,99.99
2017-02-08T02:09:17.018Z,99.99
2017-02-08T02:10:26.056Z,99.99
2017-02-08T02:11:35.869Z,99.99
2017-02-08T02:12:46.090Z,99.99
2017-02-08T02:13:55.177Z,99.99
2017-02-08T02:15:04.983Z,99.99
2017-02-08T02:16:14.022Z,99.99
2017-02-08T02:17:23.928Z,99.99
2017-02-08T02:18:33.809Z,99.99
2017-02-08T02:19:42.498Z,99.99
2017-02-08T02:20:51.952Z,99.99
2017-02-08T02:22:00.608Z,99.99
2017-02-08T02:23:10.049Z,99.99
2017-02-08T02:24:19.859Z,99.99
2017-02-08T02:25:29.134Z,99.99
2017-02-08T02:26:38.558Z,99.99
2017-02-08T02:27:48.799Z,99.99
2017-02-08T02:28:58.272Z,99.99
2017-02-08T02:30:07.712Z,99.99
2017-02-08T02:31:16.764Z,99.99
2017-02-08T02:32:25.821Z,99.99
2017-02-08T02:33:35.277Z,99.99
2017-02-08T02:34:45.102Z,99.99
2017-02-08T02:35:54.423Z,99.99
2017-02-08T02:37:04.239Z,99.99
2017-02-08T02:38:14.053Z,99.99
2017-02-08T02:39:23.181Z,99.99
2017-02-08T02:40:33.029Z,99.99
2017-02-08T02:41:42.539Z,99.99
2017-02-08T02:42:52.100Z,99.99
2017-02-08T02:44:01.522Z,99.99
2017-02-08T02:45:11.150Z,99.99
2017-02-08T02:46:20.189Z,99.99
2017-02-08T02:47:30.085Z,99.99
2017-02-08T02:48:39.526Z,99.99
2017-02-08T02:49:48.950Z,99.99
2017-02-08T02:50:58.105Z,99.99
2017-02-08T02:52:08.289Z,99.99
2017-02-08T02:53:17.333Z,99.99
2017-02-08T02:54:26.763Z,99.99
2017-02-08T02:55:36.183Z,99.99
2017-02-08T02:56:45.606Z,99.99
2017-02-08T02:57:55.030Z,99.99
2017-02-08T02:59:04.846Z,99.99
2017-02-08T03:00:14.268Z,99.99
2017-02-08T03:01:23.695Z,99.99
2017-02-08T03:02:33.941Z,99.99
2017-02-08T03:03:43.745Z,99.99
2017-02-08T03:04:52.789Z,99.99
2017-02-08T03:06:01.455Z,99.99
2017-02-08T03:07:11.264Z,99.99
2017-02-08T03:08:21.068Z,99.99
2017-02-08T03:09:30.496Z,99.99
2017-02-08T03:10:39.921Z,99.99
2017-02-08T03:11:49.349Z,99.99
2017-02-08T03:12:59.160Z,99.99
2017-02-08T03:14:08.583Z,99.99
2017-02-08T03:15:17.632Z,99.99
2017-02-08T03:16:27.443Z,99.99
2017-02-08T03:17:36.898Z,99.99
2017-02-08T03:18:46.703Z,99.99
2017-02-08T03:19:57.274Z,99.99
2017-02-08T03:21:06.696Z,99.99
2017-02-08T03:22:16.120Z,99.99
2017-02-08T03:23:25.930Z,99.99
2017-02-08T03:24:36.133Z,99.99
2017-02-08T03:25:46.334Z,99.99
2017-02-08T03:26:55.370Z,99.99
2017-02-08T03:28:04.801Z,99.99
2017-02-08T03:29:14.232Z,99.99
2017-02-08T03:30:24.042Z,99.99
2017-02-08T03:31:32.700Z,99.99
2017-02-08T03:32:41.747Z,99.99
2017-02-08T03:33:50.781Z,99.99
2017-02-08T03:34:59.821Z,99.99
2017-02-08T03:36:08.868Z,99.99
2017-02-08T03:37:17.617Z,99.99
2017-02-08T03:38:27.426Z,99.99
2017-02-08T03:39:36.849Z,99.99
2017-02-08T03:40:45.888Z,99.99
2017-02-08T03:41:55.320Z,99.99
2017-02-08T03:43:04.743Z,99.99
2017-02-08T03:44:13.409Z,99.99
2017-02-08T03:45:22.836Z,99.99
2017-02-08T03:46:32.259Z,99.99
2017-02-08T03:47:41.686Z,99.99
2017-02-08T03:48:51.106Z,99.99
2017-02-08T03:50:00.145Z,99.99
2017-02-08T03:51:09.192Z,99.99
2017-02-08T03:52:18.997Z,99.99
2017-02-08T03:53:28.036Z,99.99
2017-02-08T03:54:37.122Z,99.99
2017-02-08T03:55:47.309Z,99.99
2017-02-08T03:56:57.116Z,99.99
2017-02-08T03:58:07.308Z,99.99
2017-02-08T03:59:17.114Z,99.99
2017-02-08T04:00:26.539Z,99.99
2017-02-08T04:01:35.578Z,99.99
2017-02-08T04:02:45.006Z,99.99
2017-02-08T04:03:54.050Z,99.99
2017-02-08T04:05:04.241Z,99.99
2017-02-08T04:06:13.666Z,99.99
2017-02-08T04:07:23.473Z,99.99
2017-02-08T04:08:32.900Z,99.99
2017-02-08T04:09:43.084Z,99.99
2017-02-08T04:10:52.892Z,99.99
2017-02-08T04:12:02.369Z,99.99
2017-02-08T04:13:11.792Z,99.99
2017-02-08T04:14:21.601Z,99.99
2017-02-08T04:15:31.027Z,99.99
2017-02-08T04:16:40.491Z,99.99
2017-02-08T04:17:50.298Z,99.99
2017-02-08T04:19:00.101Z,99.99
2017-02-08T04:20:09.526Z,99.99
2017-02-08T04:21:19.333Z,99.99
2017-02-08T04:22:28.369Z,99.99
2017-02-08T04:23:38.174Z,99.99
2017-02-08T04:24:47.600Z,99.99
2017-02-08T04:25:56.644Z,99.99
2017-02-08T04:27:06.069Z,99.99
2017-02-08T04:28:15.107Z,99.99
2017-02-08T04:29:24.154Z,99.99
2017-02-08T04:30:34.344Z,99.99
2017-02-08T04:31:44.150Z,99.99
2017-02-08T04:32:53.958Z,99.99
2017-02-08T04:34:03.765Z,99.99
2017-02-08T04:35:12.466Z,99.99
2017-02-08T04:36:22.277Z,99.99
2017-02-08T04:37:31.316Z,99.99
2017-02-08T04:38:41.124Z,99.99
2017-02-08T04:39:50.931Z,99.99
2017-02-08T04:41:00.739Z,99.99
2017-02-08T04:42:09.796Z,99.99
2017-02-08T04:43:19.601Z,99.99
2017-02-08T04:44:29.025Z,99.99
2017-02-08T04:45:38.834Z,99.99
2017-02-08T04:46:48.260Z,99.99
2017-02-08T04:47:58.067Z,99.99
2017-02-08T04:49:07.493Z,99.99
2017-02-08T04:50:16.916Z,99.99
2017-02-08T04:51:26.376Z,99.99
2017-02-08T04:52:36.614Z,99.99
2017-02-08T04:53:45.655Z,99.99
2017-02-08T04:54:55.077Z,99.99
2017-02-08T04:56:04.507Z,99.99
2017-02-08T04:57:14.317Z,99.99
2017-02-08T04:58:24.121Z,99.99
2017-02-08T04:59:32.790Z,99.99
2017-02-08T05:00:41.829Z,99.99
2017-02-08T05:01:52.024Z,99.99
2017-02-08T05:03:01.447Z,99.99
2017-02-08T05:04:10.874Z,99.99
2017-02-08T05:05:19.918Z,99.99
2017-02-08T05:06:28.958Z,99.99
2017-02-08T05:07:39.144Z,99.99
2017-02-08T05:08:48.190Z,99.99
2017-02-08T05:09:57.234Z,99.99
2017-02-08T05:11:05.893Z,99.99
2017-02-08T05:12:14.938Z,99.99
2017-02-08T05:13:24.752Z,99.99
2017-02-08T05:14:33.789Z,99.99
2017-02-08T05:15:43.206Z,99.99
2017-02-08T05:16:52.628Z,99.99
2017-02-08T05:18:02.812Z,99.99
2017-02-08T05:19:12.233Z,99.99
2017-02-08T05:20:21.656Z,99.99
2017-02-08T05:21:31.079Z,99.99
2017-02-08T05:22:40.883Z,99.99
2017-02-08T05:23:50.691Z,99.99
2017-02-08T05:25:00.116Z,99.99
2017-02-08T05:26:09.981Z,99.99
2017-02-08T05:27:19.410Z,99.99
2017-02-08T05:28:29.222Z,99.99
2017-02-08T05:29:38.260Z,99.99
2017-02-08T05:30:47.687Z,99.99
2017-02-08T05:31:57.493Z,99.99
2017-02-08T05:33:06.917Z,99.99
2017-02-08T05:34:16.339Z,99.99
2017-02-08T05:35:25.761Z,99.99
2017-02-08T05:36:35.186Z,99.99
2017-02-08T05:37:44.993Z,99.99
2017-02-08T05:38:54.420Z,99.99
2017-02-08T05:40:04.637Z,99.99
2017-02-08T05:41:14.442Z,99.99
2017-02-08T05:42:23.099Z,99.99
2017-02-08T05:43:32.912Z,99.99
2017-02-08T05:44:42.329Z,99.99
2017-02-08T05:45:51.761Z,99.99
2017-02-08T05:47:00.801Z,99.99
2017-02-08T05:48:10.614Z,99.99
2017-02-08T05:49:19.700Z,99.99
2017-02-08T05:50:29.513Z,99.99
2017-02-08T05:51:39.316Z,99.99
2017-02-08T05:52:48.737Z,99.99
2017-02-08T05:53:58.926Z,99.99
2017-02-08T05:55:08.736Z,99.99
2017-02-08T05:56:17.775Z,99.99
2017-02-08T05:57:27.960Z,99.99
2017-02-08T05:58:37.383Z,99.99
2017-02-08T05:59:46.810Z,99.99
2017-02-08T06:00:56.237Z,99.99
2017-02-08T06:02:06.431Z,99.99
2017-02-08T06:03:16.618Z,99.99
2017-02-08T06:04:26.428Z,99.99
2017-02-08T06:05:35.849Z,99.99
2017-02-08T06:06:44.891Z,99.99
2017-02-08T06:07:54.314Z,99.99
2017-02-08T06:09:04.126Z,99.99
2017-02-08T06:10:14.320Z,99.99
2017-02-08T06:11:24.133Z,99.99
2017-02-08T06:12:33.220Z,99.99
2017-02-08T06:13:42.262Z,99.99
2017-02-08T06:14:51.685Z,99.99
2017-02-08T06:16:00.735Z,99.99
2017-02-08T06:17:10.168Z,99.99
2017-02-08T06:18:19.213Z,99.99
2017-02-08T06:19:29.787Z,99.99
2017-02-08T06:20:39.215Z,99.99
2017-02-08T06:21:48.262Z,99.99
2017-02-08T06:22:58.062Z,99.99
2017-02-08T06:24:07.489Z,99.99
2017-02-08T06:25:16.916Z,99.99
2017-02-08T06:26:26.729Z,99.99
2017-02-08T06:27:36.157Z,99.99
2017-02-08T06:28:45.581Z,99.99
2017-02-08T06:29:55.058Z,99.99
2017-02-08T06:31:05.257Z,99.99
2017-02-08T06:32:14.680Z,99.99
2017-02-08T06:33:24.872Z,99.99
2017-02-08T06:34:34.300Z,99.99
2017-02-08T06:35:44.151Z,99.99
2017-02-08T06:36:53.576Z,99.99
2017-02-08T06:38:03.386Z,99.99
2017-02-08T06:39:12.818Z,99.99
2017-02-08T06:40:21.862Z,99.99
2017-02-08T06:41:31.670Z,99.99
2017-02-08T06:42:41.486Z,99.99
2017-02-08T06:43:50.914Z,99.99
2017-02-08T06:45:00.732Z,99.99
2017-02-08T06:46:11.311Z,99.99
2017-02-08T06:47:20.404Z,99.99
2017-02-08T06:48:29.831Z,99.99
2017-02-08T06:49:38.880Z,99.99
2017-02-08T06:50:48.306Z,99.99
2017-02-08T06:51:56.966Z,99.99
2017-02-08T06:53:06.392Z,99.99
2017-02-08T06:54:15.448Z,99.99
2017-02-08T06:55:24.872Z,99.99
2017-02-08T06:56:33.911Z,99.99
2017-02-08T06:57:44.100Z,99.99
2017-02-08T06:58:53.142Z,99.99
2017-02-08T07:00:03.338Z,99.99
2017-02-08T07:01:12.775Z,99.99
2017-02-08T07:02:22.199Z,99.99
2017-02-08T07:03:31.246Z,99.99
2017-02-08T07:04:41.053Z,99.99
2017-02-08T07:05:50.503Z,99.99
2017-02-08T07:07:00.693Z,99.99
2017-02-08T07:08:09.743Z,99.99
2017-02-08T07:09:18.784Z,99.99
2017-02-08T07:10:28.596Z,99.99
2017-02-08T07:11:38.451Z,99.99
2017-02-08T07:12:48.256Z,99.99
2017-02-08T07:13:57.681Z,99.99
2017-02-08T07:15:07.489Z,99.99
2017-02-08T07:16:17.298Z,99.99
2017-02-08T07:17:27.104Z,99.99
2017-02-08T07:18:36.912Z,99.99
2017-02-08T07:19:46.716Z,99.99
2017-02-08T07:20:55.387Z,99.99
2017-02-08T07:22:04.817Z,99.99
2017-02-08T07:23:14.624Z,99.99
2017-02-08T07:24:24.818Z,99.99
2017-02-08T07:25:34.238Z,99.99
2017-02-08T07:26:43.280Z,99.99
2017-02-08T07:27:53.088Z,99.99
2017-02-08T07:29:02.514Z,99.99
2017-02-08T07:30:12.321Z,99.99
2017-02-08T07:31:21.742Z,99.99
2017-02-08T07:32:31.552Z,99.99
2017-02-08T07:33:40.978Z,99.99
2017-02-08T07:34:50.404Z,99.99
2017-02-08T07:36:00.599Z,99.99
2017-02-08T07:37:09.643Z,99.99
2017-02-08T07:38:19.837Z,99.99
2017-02-08T07:39:30.025Z,99.99
2017-02-08T07:40:39.451Z,99.99
2017-02-08T07:41:48.491Z,99.99
2017-02-08T07:42:57.918Z,99.99
2017-02-08T07:44:07.724Z,99.99
2017-02-08T07:45:17.150Z,99.99
2017-02-08T07:46:26.957Z,99.99
2017-02-08T07:47:36.005Z,99.99
2017-02-08T07:48:44.664Z,99.99
2017-02-08T07:49:54.089Z,99.99
2017-02-08T07:51:03.514Z,99.99
2017-02-08T07:52:12.941Z,99.99
2017-02-08T07:53:22.368Z,99.99
2017-02-08T07:54:31.787Z,99.99
2017-02-08T07:55:40.823Z,99.99
2017-02-08T07:56:50.718Z,99.99
2017-02-08T07:58:00.143Z,99.99
2017-02-08T07:59:10.337Z,99.99
2017-02-08T08:00:19.756Z,99.99
2017-02-08T08:01:28.804Z,99.99
2017-02-08T08:02:37.892Z,99.99
2017-02-08T08:03:46.934Z,99.99
2017-02-08T08:04:56.358Z,99.99
2017-02-08T08:06:05.784Z,99.99
2017-02-08T08:07:14.444Z,99.99
2017-02-08T08:08:23.869Z,99.99
2017-02-08T08:09:32.915Z,99.99
2017-02-08T08:10:42.722Z,99.99
2017-02-08T08:11:52.146Z,99.99
2017-02-08T08:13:01.573Z,99.99
2017-02-08T08:14:10.288Z,99.99
2017-02-08T08:15:20.864Z,99.99
2017-02-08T08:16:29.911Z,99.99
2017-02-08T08:17:39.332Z,99.99
2017-02-08T08:18:49.151Z,99.99
2017-02-08T08:19:58.235Z,99.99
2017-02-08T08:21:07.663Z,99.99
2017-02-08T08:22:17.858Z,99.99
2017-02-08T08:23:27.293Z,99.99
2017-02-08T08:24:37.102Z,99.99
2017-02-08T08:25:47.348Z,99.99
2017-02-08T08:26:57.157Z,99.99
2017-02-08T08:28:06.584Z,99.99
2017-02-08T08:29:16.391Z,99.99
2017-02-08T08:30:25.433Z,99.99
2017-02-08T08:31:35.248Z,99.99
2017-02-08T08:32:45.059Z,99.99
2017-02-08T08:33:54.482Z,99.99
2017-02-08T08:35:04.287Z,99.99
2017-02-08T08:36:14.091Z,99.99
2017-02-08T08:37:23.183Z,99.99
2017-02-08T08:38:32.224Z,99.99
2017-02-08T08:39:41.656Z,99.99
2017-02-08T08:40:50.695Z,99.99
2017-02-08T08:42:00.499Z,99.99
2017-02-08T08:43:10.692Z,99.99
2017-02-08T08:44:19.770Z,99.99
2017-02-08T08:45:29.579Z,99.99
2017-02-08T08:46:39.008Z,99.99
2017-02-08T08:47:48.431Z,99.99
2017-02-08T08:48:58.286Z,99.99
2017-02-08T08:50:08.127Z,99.99
2017-02-08T08:51:17.554Z,99.99
2017-02-08T08:52:27.742Z,99.99
2017-02-08T08:53:37.548Z,99.99
2017-02-08T08:54:47.738Z,99.99
2017-02-08T08:55:57.165Z,99.99
2017-02-08T08:57:06.973Z,99.99
2017-02-08T08:58:16.781Z,99.99
2017-02-08T08:59:26.591Z,99.99
2017-02-08T09:00:35.680Z,99.99
2017-02-08T09:01:45.107Z,99.99
2017-02-08T09:02:54.916Z,99.99
2017-02-08T09:04:04.730Z,99.99
2017-02-08T09:05:14.542Z,99.99
2017-02-08T09:06:23.251Z,99.99
2017-02-08T09:07:32.293Z,99.99
2017-02-08T09:08:42.103Z,99.99
2017-02-08T09:09:51.147Z,99.99
2017-02-08T09:11:00.952Z,99.99
2017-02-08T09:12:11.524Z,99.99
2017-02-08T09:13:20.565Z,99.99
2017-02-08T09:14:30.761Z,99.99
2017-02-08T09:15:40.569Z,99.99
2017-02-08T09:16:49.993Z,99.99
2017-02-08T09:17:59.467Z,99.99
2017-02-08T09:19:09.312Z,99.99
2017-02-08T09:20:18.770Z,99.99
2017-02-08T09:21:28.196Z,99.99
2017-02-08T09:22:38.006Z,99.99
2017-02-08T09:23:48.241Z,99.99
2017-02-08T09:24:58.050Z,99.99
2017-02-08T09:26:07.476Z,99.99
2017-02-08T09:27:17.282Z,99.99
2017-02-08T09:28:26.322Z,99.99
2017-02-08T09:29:35.800Z,99.99
2017-02-08T09:30:45.223Z,99.99
2017-02-08T09:31:54.640Z,99.99
2017-02-08T09:33:04.832Z,99.99
2017-02-08T09:34:14.258Z,99.99
2017-02-08T09:35:23.688Z,99.99
2017-02-08T09:36:33.882Z,99.99
2017-02-08T09:37:43.687Z,99.99
2017-02-08T09:38:52.726Z,99.99
2017-02-08T09:40:02.925Z,99.99
2017-02-08T09:41:12.739Z,99.99
2017-02-08T09:42:21.790Z,99.99
2017-02-08T09:43:31.215Z,99.99
2017-02-08T09:44:41.405Z,99.99
2017-02-08T09:45:50.443Z,99.99
2017-02-08T09:47:00.304Z,99.99
2017-02-08T09:48:09.727Z,99.99
2017-02-08T09:49:19.152Z,99.99
2017-02-08T09:50:28.961Z,99.99
2017-02-08T09:51:38.769Z,99.99
2017-02-08T09:52:48.621Z,99.99
2017-02-08T09:53:58.814Z,99.99
2017-02-08T09:55:08.239Z,99.99
2017-02-08T09:56:17.662Z,99.99
2017-02-08T09:57:26.704Z,99.99
2017-02-08T09:58:36.132Z,99.99
2017-02-08T09:59:45.568Z,99.99
2017-02-08T10:00:55.381Z,99.99
2017-02-08T10:02:05.191Z,99.99
2017-02-08T10:03:14.612Z,99.99
2017-02-08T10:04:23.652Z,99.99
2017-02-08T10:05:33.081Z,99.99
2017-02-08T10:06:42.125Z,99.99
2017-02-08T10:07:51.552Z,99.99
2017-02-08T10:09:00.598Z,99.99
2017-02-08T10:10:10.023Z,99.99
2017-02-08T10:11:19.829Z,99.99
2017-02-08T10:12:29.256Z,99.99
2017-02-08T10:13:38.295Z,99.99
2017-02-08T10:14:48.870Z,99.99
2017-02-08T10:15:58.691Z,99.99
2017-02-08T10:17:08.118Z,99.99
2017-02-08T10:18:17.157Z,99.99
2017-02-08T10:19:26.205Z,99.99
2017-02-08T10:20:35.637Z,99.99
2017-02-08T10:21:45.117Z,99.99
2017-02-08T10:22:55.310Z,99.99
2017-02-08T10:24:04.735Z,99.99
2017-02-08T10:25:14.160Z,99.99
2017-02-08T10:26:23.969Z,99.99
2017-02-08T10:27:33.396Z,99.99
2017-02-08T10:28:42.816Z,99.99
2017-02-08T10:29:52.245Z,99.99
2017-02-08T10:31:02.058Z,99.99
2017-02-08T10:32:11.485Z,99.99
2017-02-08T10:33:21.679Z,99.99
2017-02-08T10:34:31.116Z,99.99
2017-02-08T10:35:40.921Z,99.99
2017-02-08T10:36:50.344Z,99.99
2017-02-08T10:37:59.773Z,99.99
2017-02-08T10:39:09.203Z,99.99
2017-02-08T10:40:19.391Z,99.99
2017-02-08T10:41:29.965Z,99.99
2017-02-08T10:42:39.384Z,99.99
2017-02-08T10:43:49.574Z,99.99
2017-02-08T10:44:59.437Z,99.99
2017-02-08T10:46:08.870Z,99.99
2017-02-08T10:47:18.678Z,99.99
2017-02-08T10:48:28.102Z,99.99
2017-02-08T10:49:37.146Z,99.99
2017-02-08T10:50:46.958Z,99.99
2017-02-08T10:51:56.763Z,99.99
2017-02-08T10:53:05.806Z,99.99
2017-02-08T10:54:14.847Z,99.99
2017-02-08T10:55:24.653Z,99.99
2017-02-08T10:56:34.168Z,99.99
2017-02-08T10:57:43.978Z,99.99
2017-02-08T10:58:53.793Z,99.99
2017-02-08T11:00:03.219Z,99.99
2017-02-08T11:01:12.261Z,99.99
2017-02-08T11:02:21.688Z,99.99
2017-02-08T11:03:31.500Z,99.99
2017-02-08T11:04:40.159Z,99.99
2017-02-08T11:05:49.583Z,99.99
2017-02-08T11:06:59.024Z,99.96
2017-02-08T11:08:09.218Z,99.58
2017-02-08T11:09:19.029Z,99.99
2017-02-08T11:10:29.225Z,99.99
2017-02-08T11:11:39.423Z,99.99
2017-02-08T11:12:49.646Z,99.99
2017-02-08T11:13:59.837Z,99.99
2017-02-08T11:15:08.884Z,99.77
2017-02-08T11:16:18.310Z,99.99
2017-02-08T11:17:27.356Z,99.99
2017-02-08T11:18:37.172Z,99.99
2017-02-08T11:19:47.041Z,99.58
2017-02-08T11:20:56.087Z,99.1
2017-02-08T11:22:05.893Z,99.29
2017-02-08T11:23:16.089Z,99.67
2017-02-08T11:24:25.135Z,99.99
2017-02-08T11:25:34.612Z,99.99
2017-02-08T11:26:44.428Z,99.99
2017-02-08T11:27:54.620Z,99.99
2017-02-08T11:29:04.433Z,99.99
2017-02-08T11:30:13.098Z,98.72
2017-02-08T11:31:22.245Z,98.91
2017-02-08T11:32:31.674Z,98.35
2017-02-08T11:33:41.485Z,98.54
2017-02-08T11:34:50.173Z,99.86
2017-02-08T11:35:59.219Z,98.91
2017-02-08T11:37:08.358Z,99.58
2017-02-08T11:38:17.826Z,99.58
2017-02-08T11:39:27.633Z,98.63
2017-02-08T11:40:37.437Z,98.91
2017-02-08T11:41:47.248Z,98.63
2017-02-08T11:42:56.392Z,99.39
2017-02-08T11:44:05.817Z,99.99
2017-02-08T11:45:14.865Z,99.58
2017-02-08T11:46:24.293Z,99.86
2017-02-08T11:47:33.714Z,99.58
2017-02-08T11:48:42.755Z,98.72
2017-02-08T11:49:51.804Z,99.2
2017-02-08T11:51:01.230Z,98.63
2017-02-08T11:52:10.655Z,98.25
2017-02-08T11:53:20.089Z,97.68
2017-02-08T11:54:30.382Z,96.92
2017-02-08T11:55:39.426Z,96.73
2017-02-08T11:56:49.234Z,96.73
2017-02-08T11:57:59.051Z,96.55
2017-02-08T11:59:08.859Z,97.87
2017-02-08T12:00:18.667Z,98.16
2017-02-08T12:01:28.488Z,98.06
2017-02-08T12:02:38.682Z,97.68
2017-02-08T12:03:48.107Z,97.68
2017-02-08T12:04:57.536Z,97.02
2017-02-08T12:06:07.063Z,98.35
2017-02-08T12:07:16.106Z,97.73
2017-02-08T12:08:25.919Z,97.68
2017-02-08T12:09:35.349Z,98.3
2017-02-08T12:10:45.190Z,95.84
2017-02-08T12:11:54.998Z,96.88
2017-02-08T12:13:04.813Z,96.92
2017-02-08T12:14:14.238Z,96.92
2017-02-08T12:15:23.277Z,97.68
2017-02-08T12:16:31.936Z,97.97
2017-02-08T12:17:41.080Z,97.21
2017-02-08T12:18:50.124Z,97.78
2017-02-08T12:19:59.942Z,97.02
2017-02-08T12:21:09.754Z,96.55
2017-02-08T12:22:19.570Z,96.64
2017-02-08T12:23:28.613Z,95.98
2017-02-08T12:24:38.805Z,96.64
2017-02-08T12:25:48.632Z,96.73
2017-02-08T12:26:58.442Z,97.78
2017-02-08T12:28:08.255Z,97.3
2017-02-08T12:29:17.405Z,97.97
2017-02-08T12:30:26.451Z,97.02
2017-02-08T12:31:35.498Z,97.97
2017-02-08T12:32:44.928Z,97.68
2017-02-08T12:33:54.738Z,97.11
2017-02-08T12:35:04.260Z,97.78
2017-02-08T12:36:13.311Z,97.83
2017-02-08T12:37:22.735Z,97.16
2017-02-08T12:38:32.161Z,97.26
2017-02-08T12:39:41.979Z,95.45
2017-02-08T12:40:51.025Z,95.36
2017-02-08T12:42:00.455Z,95.36
2017-02-08T12:43:09.902Z,95.74
2017-02-08T12:44:19.329Z,94.79
2017-02-08T12:45:28.375Z,96.03
2017-02-08T12:46:38.186Z,97.07
2017-02-08T12:47:47.612Z,95.93
2017-02-08T12:48:56.274Z,95.17
2017-02-08T12:50:05.705Z,94.98
2017-02-08T12:51:15.522Z,94.04
2017-02-08T12:52:25.052Z,94.04
2017-02-08T12:53:34.482Z,94.51
2017-02-08T12:54:43.910Z,94.89
2017-02-08T12:55:53.338Z,94.6
2017-02-08T12:57:02.770Z,94.51
2017-02-08T12:58:12.305Z,94.23
2017-02-08T12:59:21.352Z,94.79
2017-02-08T13:00:30.401Z,94.79
2017-02-08T13:01:40.215Z,93.56
2017-02-08T13:02:50.407Z,94.89
2017-02-08T13:03:59.932Z,95.55
2017-02-08T13:05:09.383Z,94.04
2017-02-08T13:06:18.809Z,94.13
2017-02-08T13:07:28.241Z,93.37
2017-02-08T13:08:37.301Z,92.9
2017-02-08T13:09:47.214Z,94.23
2017-02-08T13:10:57.024Z,94.51
2017-02-08T13:12:06.449Z,94.04
2017-02-08T13:13:15.492Z,93.94
2017-02-08T13:14:25.688Z,92.23
2017-02-08T13:15:34.735Z,92.38
2017-02-08T13:16:43.775Z,93.32
2017-02-08T13:17:52.443Z,93.7
2017-02-08T13:19:01.495Z,94.18
2017-02-08T13:20:11.306Z,92.94
2017-02-08T13:21:20.453Z,92.94
2017-02-08T13:22:30.268Z,90.57
2017-02-08T13:23:40.462Z,92.57
2017-02-08T13:24:49.506Z,92.66
2017-02-08T13:25:58.939Z,91.33
2017-02-08T13:27:08.472Z,91.99
2017-02-08T13:28:17.135Z,91.9
2017-02-08T13:29:26.563Z,92.18
2017-02-08T13:30:36.378Z,93.61
2017-02-08T13:31:45.047Z,92.09
2017-02-08T13:32:54.860Z,90.76
2017-02-08T13:34:04.668Z,90.67
2017-02-08T13:35:13.712Z,92.18
2017-02-08T13:36:23.523Z,92.66
2017-02-08T13:37:32.564Z,92.09
2017-02-08T13:38:42.481Z,91.71
2017-02-08T13:39:51.913Z,90.9
2017-02-08T13:41:01.338Z,90.95
2017-02-08T13:42:11.150Z,90.29
2017-02-08T13:43:20.965Z,90.86
2017-02-08T13:44:30.395Z,90.1
2017-02-08T13:45:39.821Z,90.1
2017-02-08T13:46:49.632Z,91.8
2017-02-08T13:47:59.061Z,91.05
2017-02-08T13:49:08.904Z,91.52
2017-02-08T13:50:18.731Z,91.99
2017-02-08T13:51:27.776Z,91.05
2017-02-08T13:52:37.974Z,91.42
2017-02-08T13:53:47.402Z,91.61
2017-02-08T13:54:56.483Z,92.47
2017-02-08T13:56:05.634Z,91
2017-02-08T13:57:15.449Z,91.28
2017-02-08T13:58:25.644Z,92.76
2017-02-08T13:59:35.463Z,94.37
2017-02-08T14:00:44.932Z,94.46
2017-02-08T14:01:54.465Z,93.89
2017-02-08T14:03:03.511Z,94.08
2017-02-08T14:04:12.562Z,91.99
2017-02-08T14:05:22.374Z,91.24
2017-02-08T14:06:32.576Z,91.8
2017-02-08T14:07:42.926Z,91.99
2017-02-08T14:08:51.972Z,91.19
2017-02-08T14:10:01.019Z,91.95
2017-02-08T14:11:10.060Z,92.52
2017-02-08T14:12:19.872Z,93.84
2017-02-08T14:13:29.682Z,93.65
2017-02-08T14:14:38.350Z,92.23
2017-02-08T14:15:47.784Z,91.47
2017-02-08T14:16:57.600Z,91.76
2017-02-08T14:18:07.797Z,92.52
2017-02-08T14:19:17.226Z,92.52
2017-02-08T14:20:26.652Z,92.33
2017-02-08T14:21:36.096Z,92.9
2017-02-08T14:22:46.292Z,93.56
2017-02-08T14:23:56.486Z,93.37
2017-02-08T14:25:05.531Z,92.33
2017-02-08T14:26:15.343Z,92.23
2017-02-08T14:27:25.164Z,93.08
2017-02-08T14:28:34.588Z,93.27
2017-02-08T14:29:43.639Z,93.75
2017-02-08T14:30:53.448Z,93.84
2017-02-08T14:32:03.254Z,95.26
2017-02-08T14:41:46.996Z,95.84
2017-02-08T14:43:28.885Z,95.41
2017-02-08T14:44:37.934Z,95.6
2017-02-08T14:45:47.745Z,95.31
2017-02-08T14:46:57.203Z,94.93
2017-02-08T14:48:07.784Z,95.6
2017-02-08T14:49:17.214Z,95.79
2017-02-08T14:50:26.643Z,96.26
2017-02-08T14:51:36.454Z,96.26
2017-02-08T14:52:46.745Z,96.17
2017-02-08T14:53:55.784Z,96.55
2017-02-08T14:55:05.599Z,95.98
2017-02-08T14:56:15.455Z,95.03
2017-02-08T14:57:25.264Z,95.41
2017-02-08T14:58:35.563Z,95.79
2017-02-08T14:59:44.608Z,96.55
2017-02-08T15:00:54.801Z,96.64
2017-02-08T15:02:03.855Z,96.45
2017-02-08T15:03:13.288Z,95.03
2017-02-08T15:04:23.098Z,95.5
2017-02-08T15:05:32.908Z,96.26